Time;durP1;ratioP1;P1;durP2;ratioP2;P2;SDS_P1;SDS_P2;PMS_P1;PMS_P2;Temp;Humidity;BMP_temperature;BMP_pressure;BME280_temperature;BME280_humidity;BME280_pressure;Samples;Min_cycle;Max_cycle;Signal;HPM_P1;HPM_P2
2022/10/20 00:00:58;;;;;;;6.00;3.85;;;;;;;;;;5094297;28;20059;-90
2022/10/20 00:03:27;;;;;;;9.50;2.35;;;;;;;;;;5092091;28;20063;-92
2022/10/20 00:05:55;;;;;;;6.65;2.53;;;;;;;;;;5088861;28;20048;-93
2022/10/20 00:08:24;;;;;;;6.95;2.45;;;;;;;;;;5089481;28;20048;-93
2022/10/20 00:10:55;;;;;;;8.25;2.35;;;;;;;;;;5085602;28;20503;-94
2022/10/20 00:13:24;;;;;;;6.70;2.95;;;;;;;;;;5093093;28;20131;-95
2022/10/20 00:15:53;;;;;;;6.57;2.20;;;;;;;;;;5093026;28;20059;-89
2022/10/20 00:18:22;;;;;;;7.75;2.22;;;;;;;;;;5088494;28;20039;-89
2022/10/20 00:20:51;;;;;;;7.45;2.40;;;;;;;;;;5090269;28;20109;-91
2022/10/20 00:23:20;;;;;;;7.78;2.50;;;;;;;;;;5085872;28;20080;-93
2022/10/20 00:25:48;;;;;;;5.63;1.83;;;;;;;;;;5091473;28;20052;-94
2022/10/20 00:28:18;;;;;;;10.23;2.45;;;;;;;;;;5082678;28;20128;-90
2022/10/20 00:30:46;;;;;;;7.13;2.50;;;;;;;;;;5103509;28;20048;-96
2022/10/20 00:33:14;;;;;;;8.77;2.13;;;;;;;;;;5088810;28;20388;-95
2022/10/20 00:35:43;;;;;;;6.80;3.08;;;;;;;;;;5094146;28;20048;-94
2022/10/20 00:38:11;;;;;;;10.98;2.75;;;;;;;;;;5091447;28;20516;-95
2022/10/20 00:40:39;;;;;;;7.55;2.42;;;;;;;;;;5093679;28;20055;-92
2022/10/20 00:43:10;;;;;;;6.00;2.58;;;;;;;;;;5083301;28;20056;-94
2022/10/20 00:45:40;;;;;;;12.52;4.25;;;;;;;;;;5080317;28;20504;-91
2022/10/20 00:48:14;;;;;;;7.10;3.22;;;;;;;;;;5100979;28;20105;-95
2022/10/20 00:50:44;;;;;;;12.85;3.13;;;;;;;;;;5087258;28;20041;-94
2022/10/20 00:53:12;;;;;;;9.32;3.00;;;;;;;;;;5078451;28;20051;-95
2022/10/20 00:55:43;;;;;;;14.15;3.63;;;;;;;;;;5091298;28;20131;-93
2022/10/20 00:58:11;;;;;;;9.98;2.92;;;;;;;;;;5093117;28;20048;-93
2022/10/20 01:00:42;;;;;;;9.18;3.67;;;;;;;;;;5075548;28;20079;-91
2022/10/20 01:03:14;;;;;;;8.90;2.58;;;;;;;;;;5085549;28;20433;-94
2022/10/20 01:05:43;;;;;;;6.70;3.10;;;;;;;;;;5081803;28;20059;-95
2022/10/20 01:08:11;;;;;;;9.18;3.22;;;;;;;;;;5079327;28;20385;-92
2022/10/20 01:10:45;;;;;;;10.68;4.05;;;;;;;;;;5085553;23;20515;-91
2022/10/20 01:20:19;;;;;;;8.57;2.50;;;;;;;;;;5075194;28;20071;-91
2022/10/20 01:23:01;;;;;;;;;;;;;;;;;;5047136;28;20053;-91
2022/10/20 01:25:55;;;;;;;8.20;2.70;;;;;;;;;;5066268;28;19975;-91
2022/10/20 01:31:22;;;;;;;5.90;2.72;;;;;;;;;;5074768;28;20080;-91
2022/10/20 01:39:35;;;;;;;5.63;2.60;;;;;;;;;;5065261;28;20488;-93
2022/10/20 01:42:06;;;;;;;8.25;3.45;;;;;;;;;;5074864;28;20040;-92
2022/10/20 01:44:37;;;;;;;16.42;4.53;;;;;;;;;;5074064;28;20048;-93
2022/10/20 01:47:07;;;;;;;8.23;3.35;;;;;;;;;;5074154;28;20060;-92
2022/10/20 01:49:36;;;;;;;9.57;3.13;;;;;;;;;;5074496;28;20057;-92
2022/10/20 01:52:04;;;;;;;7.97;3.08;;;;;;;;;;5068482;28;20052;-91
2022/10/20 01:54:34;;;;;;;9.35;2.67;;;;;;;;;;5067114;28;20416;-91
2022/10/20 01:57:10;;;;;;;8.23;3.65;;;;;;;;;;5074047;28;20056;-91
2022/10/20 01:59:56;;;;;;;11.40;2.67;;;;;;;;;;5073696;28;20518;-91
2022/10/20 02:02:38;;;;;;;6.18;3.42;;;;;;;;;;5064059;28;20056;-92
2022/10/20 02:05:13;;;;;;;10.90;3.63;;;;;;;;;;5073559;28;20056;-91
2022/10/20 02:07:42;;;;;;;6.53;2.97;;;;;;;;;;5074489;28;20135;-90
2022/10/20 02:10:16;;;;;;;11.05;3.33;;;;;;;;;;5094941;28;20075;-91
2022/10/20 02:13:02;;;;;;;7.93;3.45;;;;;;;;;;5091659;28;20048;-92
2022/10/20 02:15:33;;;;;;;8.32;2.70;;;;;;;;;;5080549;28;20048;-92
2022/10/20 02:18:03;;;;;;;6.90;2.67;;;;;;;;;;5094696;28;20047;-91
2022/10/20 02:20:32;;;;;;;8.88;3.30;;;;;;;;;;5093832;28;20479;-91
2022/10/20 02:23:05;;;;;;;5.50;2.45;;;;;;;;;;5086281;28;20415;-91
2022/10/20 02:25:34;;;;;;;4.18;2.58;;;;;;;;;;5089072;28;20048;-91
2022/10/20 02:28:03;;;;;;;7.10;2.38;;;;;;;;;;5093702;28;20048;-91
2022/10/20 02:30:33;;;;;;;6.88;2.28;;;;;;;;;;5093392;28;20047;-91
2022/10/20 02:33:02;;;;;;;8.75;3.20;;;;;;;;;;5075393;28;20044;-91
2022/10/20 02:38:14;;;;;;;5.38;2.17;;;;;;;;;;5081922;28;20541;-91
2022/10/20 02:40:45;;;;;;;5.82;1.90;;;;;;;;;;5093019;28;20044;-91
2022/10/20 02:43:14;;;;;;;5.68;2.33;;;;;;;;;;5050717;28;20060;-91
2022/10/20 02:45:49;;;;;;;7.82;2.63;;;;;;;;;;5076485;28;20527;-90
2022/10/20 02:48:32;;;;;;;5.15;2.00;;;;;;;;;;5082040;28;20047;-91
2022/10/20 02:51:00;;;;;;;8.98;2.28;;;;;;;;;;5091173;28;20052;-91
2022/10/20 02:53:29;;;;;;;9.23;2.67;;;;;;;;;;5093869;28;20060;-91
2022/10/20 02:56:04;;;;;;;11.75;3.13;;;;;;;;;;5095086;28;20040;-91
2022/10/20 02:58:33;;;;;;;6.57;2.50;;;;;;;;;;5092570;28;20055;-92
2022/10/20 03:03:46;;;;;;;8.05;3.20;;;;;;;;;;5084014;28;20466;-92
2022/10/20 03:06:16;;;;;;;5.85;1.77;;;;;;;;;;5093447;28;20047;-91
2022/10/20 03:11:56;;;;;;;5.80;2.45;;;;;;;;;;5082790;28;20051;-91
2022/10/20 03:14:25;;;;;;;7.88;2.55;;;;;;;;;;5093491;28;20048;-91
2022/10/20 03:16:55;;;;;;;6.57;2.65;;;;;;;;;;5092762;28;20400;-91
2022/10/20 03:19:26;;;;;;;5.00;2.28;;;;;;;;;;5077814;28;20049;-91
2022/10/20 03:24:37;;;;;;;6.05;1.95;;;;;;;;;;5085212;28;20062;-91
2022/10/20 03:27:06;;;;;;;6.72;2.75;;;;;;;;;;5086151;28;20060;-91
2022/10/20 03:29:34;;;;;;;6.05;1.98;;;;;;;;;;5072981;28;20083;-92
2022/10/20 03:35:02;;;;;;;5.95;2.47;;;;;;;;;;5083961;28;20051;-91
2022/10/20 03:43:17;;;;;;;6.90;1.98;;;;;;;;;;5084007;28;20415;-91
2022/10/20 03:46:04;;;;;;;7.70;1.90;;;;;;;;;;5084325;28;20052;-91
2022/10/20 03:48:41;;;;;;;8.98;2.80;;;;;;;;;;5089607;28;20484;-91
2022/10/20 03:51:30;;;;;;;4.25;2.28;;;;;;;;;;5085237;28;20127;-91
2022/10/20 03:53:59;;;;;;;4.82;2.17;;;;;;;;;;5076998;28;20044;-91
2022/10/20 03:56:27;;;;;;;5.78;2.03;;;;;;;;;;5093935;28;20052;-92
2022/10/20 04:04:46;;;;;;;3.05;1.88;;;;;;;;;;5059835;28;20143;-91
2022/10/20 04:07:16;;;;;;;11.07;4.50;;;;;;;;;;5091153;28;20048;-92
2022/10/20 04:09:44;;;;;;;7.50;2.10;;;;;;;;;;5085019;28;20052;-92
2022/10/20 04:12:27;;;;;;;5.85;2.33;;;;;;;;;;5083014;28;20443;-92
2022/10/20 04:17:40;;;;;;;4.70;1.80;;;;;;;;;;5091589;28;20047;-92
2022/10/20 04:20:12;;;;;;;4.68;1.40;;;;;;;;;;5093156;28;20050;-92
2022/10/20 04:25:47;;;;;;;4.97;1.70;;;;;;;;;;5082891;28;20058;-92
2022/10/20 04:28:17;;;;;;;5.55;1.75;;;;;;;;;;5083092;28;20043;-92
2022/10/20 04:30:47;;;;;;;11.10;2.80;;;;;;;;;;5082046;28;20048;-93
2022/10/20 04:33:16;;;;;;;9.38;2.53;;;;;;;;;;5077304;28;20075;-92
2022/10/20 04:35:46;;;;;;;7.43;2.33;;;;;;;;;;5084185;28;20070;-92
2022/10/20 04:38:15;;;;;;;11.02;3.05;;;;;;;;;;5086787;28;20059;-92
2022/10/20 04:40:45;;;;;;;3.70;2.00;;;;;;;;;;5083875;28;20066;-92
2022/10/20 04:43:16;;;;;;;3.95;2.55;;;;;;;;;;5029107;28;20072;-92
2022/10/20 04:46:25;;;;;;;5.68;1.83;;;;;;;;;;5035609;28;20081;-92
2022/10/20 04:49:22;;;;;;;5.13;1.80;;;;;;;;;;5029610;28;20651;-93
2022/10/20 04:52:06;;;;;;;6.07;2.00;;;;;;;;;;5041090;28;20046;-96
2022/10/20 04:54:35;;;;;;;7.28;2.35;;;;;;;;;;5026756;28;20049;-96
2022/10/20 04:57:05;;;;;;;7.57;2.28;;;;;;;;;;5047816;28;20049;-92
2022/10/20 04:59:33;;;;;;;8.00;2.95;;;;;;;;;;5045738;28;20041;-92
2022/10/20 05:02:02;;;;;;;6.40;2.20;;;;;;;;;;5050429;28;20056;-93
2022/10/20 05:04:30;;;;;;;6.57;2.47;;;;;;;;;;5051477;28;20497;-88
2022/10/20 05:06:58;;;;;;;10.15;2.42;;;;;;;;;;5051066;28;20045;-94
2022/10/20 05:09:31;;;;;;;14.13;3.53;;;;;;;;;;5045588;28;20065;-93
2022/10/20 05:12:00;;;;;;;6.25;2.00;;;;;;;;;;5040605;28;20045;-91
2022/10/20 05:14:29;;;;;;;4.63;1.75;;;;;;;;;;5059867;28;20054;-96
2022/10/20 05:16:57;;;;;;;6.13;2.67;;;;;;;;;;5086617;28;20066;-93
2022/10/20 05:19:26;;;;;;;5.05;2.13;;;;;;;;;;5080362;28;20051;-94
2022/10/20 05:22:07;;;;;;;2.88;1.52;;;;;;;;;;5080602;28;20054;-94
2022/10/20 05:24:37;;;;;;;9.18;2.90;;;;;;;;;;5082131;28;20080;-95
2022/10/20 05:27:06;;;;;;;4.25;1.70;;;;;;;;;;5093290;28;20102;-95
2022/10/20 05:29:34;;;;;;;6.75;2.45;;;;;;;;;;5092475;28;20072;-96
2022/10/20 05:32:03;;;;;;;11.27;1.58;;;;;;;;;;5088513;28;20051;-93
2022/10/20 05:34:31;;;;;;;8.48;2.72;;;;;;;;;;5100042;28;20055;-95
2022/10/20 05:36:59;;;;;;;4.47;2.00;;;;;;;;;;5083877;28;20044;-91
2022/10/20 05:39:27;;;;;;;5.35;2.22;;;;;;;;;;5079869;28;20051;-94
2022/10/20 05:41:57;;;;;;;4.90;1.70;;;;;;;;;;5068526;28;20044;-96
2022/10/20 05:44:26;;;;;;;5.80;1.95;;;;;;;;;;5077839;28;20411;-94
2022/10/20 05:46:55;;;;;;;4.70;3.22;;;;;;;;;;5080482;28;20045;-96
2022/10/20 05:49:24;;;;;;;4.00;2.28;;;;;;;;;;5101273;28;20044;-96
2022/10/20 05:51:52;;;;;;;4.88;1.60;;;;;;;;;;5099323;28;20060;-96
2022/10/20 05:54:21;;;;;;;6.22;2.03;;;;;;;;;;5090588;28;20048;-93
2022/10/20 05:57:01;;;;;;;4.75;1.70;;;;;;;;;;5097036;28;20044;-96
2022/10/20 05:59:32;;;;;;;8.13;1.80;;;;;;;;;;5101437;28;20132;-96
2022/10/20 06:02:00;;;;;;;10.02;2.70;;;;;;;;;;5110388;28;20048;-96
2022/10/20 06:04:29;;;;;;;2.53;1.83;;;;;;;;;;5103402;28;20052;-96
2022/10/20 06:06:58;;;;;;;5.93;1.60;;;;;;;;;;5095915;28;20062;-96
2022/10/20 06:09:26;;;;;;;4.15;1.90;;;;;;;;;;5086018;28;20159;-96
2022/10/20 06:11:55;;;;;;;5.97;2.08;;;;;;;;;;5091076;28;20066;-88
2022/10/20 06:14:24;;;;;;;6.30;2.35;;;;;;;;;;5093275;28;20142;-88
2022/10/20 06:16:54;;;;;;;6.88;2.70;;;;;;;;;;5092294;28;20410;-88
2022/10/20 06:19:23;;;;;;;3.72;1.23;;;;;;;;;;5088187;28;20161;-88
2022/10/20 06:21:52;;;;;;;9.23;2.45;;;;;;;;;;5093293;28;20470;-89
2022/10/20 06:24:21;;;;;;;5.95;1.77;;;;;;;;;;5088665;28;20048;-88
2022/10/20 06:26:50;;;;;;;14.77;3.03;;;;;;;;;;5083752;28;20055;-89
2022/10/20 06:29:19;;;;;;;6.40;2.28;;;;;;;;;;5089723;28;20492;-88
2022/10/20 06:31:48;;;;;;;4.25;2.05;;;;;;;;;;5093442;28;20044;-88
2022/10/20 06:34:18;;;;;;;3.28;1.70;;;;;;;;;;5086918;28;20059;-87
2022/10/20 06:36:47;;;;;;;6.28;2.58;;;;;;;;;;5083509;28;20044;-88
2022/10/20 06:39:18;;;;;;;9.18;2.22;;;;;;;;;;5098866;28;20043;-88
2022/10/20 06:41:49;;;;;;;6.70;2.67;;;;;;;;;;5086384;28;20048;-89
2022/10/20 06:44:18;;;;;;;6.68;2.78;;;;;;;;;;5074111;28;20510;-89
2022/10/20 06:46:46;;;;;;;3.63;1.50;;;;;;;;;;5084445;28;20071;-89
2022/10/20 06:49:15;;;;;;;6.50;1.65;;;;;;;;;;5077120;28;20052;-87
2022/10/20 06:51:45;;;;;;;4.47;2.10;;;;;;;;;;5084052;28;20063;-87
2022/10/20 06:54:13;;;;;;;9.15;2.85;;;;;;;;;;5079370;28;20078;-87
2022/10/20 06:56:41;;;;;;;7.25;3.30;;;;;;;;;;5088064;28;20052;-89
2022/10/20 06:59:10;;;;;;;7.13;3.00;;;;;;;;;;5084415;28;20048;-88
2022/10/20 07:01:39;;;;;;;10.07;2.20;;;;;;;;;;5089852;28;20120;-88
2022/10/20 07:04:10;;;;;;;8.52;2.22;;;;;;;;;;5079334;28;20059;-87
2022/10/20 07:06:40;;;;;;;8.27;1.90;;;;;;;;;;5085862;28;20079;-89
2022/10/20 07:09:12;;;;;;;4.95;2.28;;;;;;;;;;5083920;28;20056;-89
2022/10/20 07:11:42;;;;;;;6.07;2.92;;;;;;;;;;5062926;28;20535;-88
2022/10/20 07:14:14;;;;;;;3.92;2.25;;;;;;;;;;5060641;28;20423;-88
2022/10/20 07:16:42;;;;;;;9.02;2.80;;;;;;;;;;5054107;28;20043;-89
2022/10/20 07:19:11;;;;;;;5.90;1.38;;;;;;;;;;5060654;28;20061;-90
2022/10/20 07:21:39;;;;;;;8.73;2.47;;;;;;;;;;5064821;28;20059;-88
2022/10/20 07:24:15;;;;;;;10.38;1.95;;;;;;;;;;5056638;28;20067;-88
2022/10/20 07:26:44;;;;;;;5.90;2.20;;;;;;;;;;5063137;28;20138;-89
2022/10/20 07:29:13;;;;;;;13.15;1.83;;;;;;;;;;5056580;28;20575;-88
2022/10/20 07:31:42;;;;;;;7.60;1.65;;;;;;;;;;5063560;28;20048;-89
2022/10/20 07:34:12;;;;;;;4.80;1.73;;;;;;;;;;5054745;28;20056;-88
2022/10/20 07:36:54;;;;;;;1.88;1.15;;;;;;;;;;5058473;28;20519;-89
2022/10/20 07:39:24;;;;;;;6.32;1.95;;;;;;;;;;5055969;28;20118;-89
2022/10/20 07:41:55;;;;;;;4.72;2.58;;;;;;;;;;5040648;28;20559;-89
2022/10/20 07:44:23;;;;;;;6.38;1.65;;;;;;;;;;5056460;28;20049;-90
2022/10/20 07:46:52;;;;;;;4.63;1.35;;;;;;;;;;5064364;28;20057;-89
2022/10/20 07:49:20;;;;;;;2.25;1.38;;;;;;;;;;5068546;28;20055;-87
2022/10/20 07:52:09;;;;;;;3.60;1.48;;;;;;;;;;5062719;28;20048;-89
2022/10/20 07:54:43;;;;;;;6.38;1.85;;;;;;;;;;5058996;28;20432;-89
2022/10/20 07:57:11;;;;;;;6.90;1.98;;;;;;;;;;5055471;28;20412;-87
2022/10/20 07:59:40;;;;;;;3.47;1.30;;;;;;;;;;5066159;28;20048;-86
2022/10/20 08:02:14;;;;;;;4.80;2.05;;;;;;;;;;5068692;28;20044;-89
2022/10/20 08:04:44;;;;;;;6.68;1.98;;;;;;;;;;5063837;28;20147;-89
2022/10/20 08:07:13;;;;;;;4.05;1.77;;;;;;;;;;5063373;28;20044;-88
2022/10/20 08:09:44;;;;;;;4.05;1.88;;;;;;;;;;5073730;28;20084;-89
2022/10/20 08:12:13;;;;;;;7.35;2.25;;;;;;;;;;5088198;28;20055;-90
2022/10/20 08:14:43;;;;;;;9.43;2.28;;;;;;;;;;5088338;28;20118;-89
2022/10/20 08:17:12;;;;;;;5.53;1.20;;;;;;;;;;5078519;28;20093;-88
2022/10/20 08:19:40;;;;;;;5.18;1.70;;;;;;;;;;5083541;28;20155;-89
2022/10/20 08:22:18;;;;;;;3.65;1.45;;;;;;;;;;5081685;28;20040;-89
2022/10/20 08:24:49;;;;;;;2.42;1.35;;;;;;;;;;5073367;28;20551;-88
2022/10/20 08:27:17;;;;;;;7.15;1.35;;;;;;;;;;5077914;28;20052;-89
2022/10/20 08:29:46;;;;;;;3.30;1.70;;;;;;;;;;5085752;28;20604;-88
2022/10/20 08:32:39;;;;;;;4.50;1.75;;;;;;;;;;5083120;28;20055;-88
2022/10/20 08:35:07;;;;;;;4.10;1.52;;;;;;;;;;5075614;28;20506;-88
2022/10/20 08:37:36;;;;;;;1.83;1.33;;;;;;;;;;5088465;28;20509;-89
2022/10/20 08:40:08;;;;;;;7.85;1.55;;;;;;;;;;5085238;28;21190;-89
2022/10/20 08:42:39;;;;;;;2.20;1.70;;;;;;;;;;5084202;28;20062;-88
2022/10/20 08:45:08;;;;;;;13.35;1.77;;;;;;;;;;5086327;28;20135;-88
2022/10/20 08:47:38;;;;;;;5.35;2.42;;;;;;;;;;5088404;28;20054;-88
2022/10/20 08:50:09;;;;;;;6.15;1.58;;;;;;;;;;5086992;28;20097;-89
2022/10/20 08:52:40;;;;;;;3.90;1.30;;;;;;;;;;5080449;28;20139;-88
2022/10/20 08:55:17;;;;;;;7.50;2.25;;;;;;;;;;5087283;28;20055;-86
2022/10/20 08:57:48;;;;;;;2.65;1.10;;;;;;;;;;5086995;28;20398;-88
2022/10/20 09:00:18;;;;;;;4.53;1.35;;;;;;;;;;5086916;28;20049;-89
2022/10/20 09:02:50;;;;;;;5.40;1.73;;;;;;;;;;5078187;28;20051;-88
2022/10/20 09:05:21;;;;;;;3.40;1.30;;;;;;;;;;5085292;28;20050;-89
2022/10/20 09:07:50;;;;;;;2.88;1.35;;;;;;;;;;5080269;28;20472;-89
2022/10/20 09:10:27;;;;;;;3.40;1.25;;;;;;;;;;5082039;28;20539;-89
2022/10/20 09:12:56;;;;;;;4.05;0.90;;;;;;;;;;5077489;28;20063;-89
2022/10/20 09:15:26;;;;;;;6.03;1.73;;;;;;;;;;5085846;28;20055;-89
2022/10/20 09:17:56;;;;;;;3.33;1.60;;;;;;;;;;5078643;28;20461;-88
2022/10/20 09:20:26;;;;;;;4.78;2.15;;;;;;;;;;5079398;28;20144;-88
2022/10/20 09:22:55;;;;;;;5.03;2.08;;;;;;;;;;5076863;28;20129;-88
2022/10/20 09:25:26;;;;;;;4.95;2.10;;;;;;;;;;5077469;28;20064;-89
2022/10/20 09:27:56;;;;;;;6.85;2.15;;;;;;;;;;5076177;28;20135;-89
2022/10/20 09:30:33;;;;;;;6.90;2.08;;;;;;;;;;5078303;28;20063;-88
2022/10/20 09:33:03;;;;;;;3.85;1.17;;;;;;;;;;5084068;28;20054;-88
2022/10/20 09:35:33;;;;;;;4.00;2.05;;;;;;;;;;5084266;28;20056;-88
2022/10/20 09:38:03;;;;;;;7.43;1.58;;;;;;;;;;5084004;28;20102;-89
2022/10/20 09:40:32;;;;;;;7.15;1.65;;;;;;;;;;5080240;28;20496;-88
2022/10/20 09:43:02;;;;;;;2.88;1.88;;;;;;;;;;5088808;28;20062;-89
2022/10/20 09:45:32;;;;;;;4.95;2.10;;;;;;;;;;5083017;28;20044;-88
2022/10/20 09:48:03;;;;;;;4.25;1.65;;;;;;;;;;5085806;28;20051;-88
2022/10/20 09:50:33;;;;;;;4.28;1.17;;;;;;;;;;5088800;28;20055;-88
2022/10/20 09:53:02;;;;;;;1.95;1.40;;;;;;;;;;5089579;28;20143;-89
2022/10/20 09:55:31;;;;;;;3.22;2.05;;;;;;;;;;5077336;28;20047;-88
2022/10/20 09:58:02;;;;;;;4.57;1.85;;;;;;;;;;5085377;28;20143;-88
2022/10/20 10:00:33;;;;;;;5.25;2.00;;;;;;;;;;5078715;28;20058;-88
2022/10/20 10:03:09;;;;;;;2.67;1.35;;;;;;;;;;5087347;28;20056;-88
2022/10/20 10:05:38;;;;;;;3.50;1.63;;;;;;;;;;5081399;28;20059;-89
2022/10/20 10:08:13;;;;;;;4.35;2.05;;;;;;;;;;5079099;28;20121;-88
2022/10/20 10:10:44;;;;;;;2.92;1.95;;;;;;;;;;5091040;28;20066;-88
2022/10/20 10:13:25;;;;;;;3.90;1.75;;;;;;;;;;5090829;28;20135;-88
2022/10/20 10:16:01;;;;;;;2.67;1.15;;;;;;;;;;5088122;28;20048;-87
2022/10/20 10:18:30;;;;;;;4.10;1.95;;;;;;;;;;5077442;28;20049;-87
2022/10/20 10:21:00;;;;;;;3.58;1.63;;;;;;;;;;5087216;28;20702;-88
2022/10/20 10:23:30;;;;;;;7.05;2.17;;;;;;;;;;5086743;28;20076;-88
2022/10/20 10:25:59;;;;;;;2.20;1.13;;;;;;;;;;5091246;28;20235;-88
2022/10/20 10:28:36;;;;;;;3.15;1.50;;;;;;;;;;5091164;28;20058;-86
2022/10/20 10:31:09;;;;;;;3.55;1.85;;;;;;;;;;5083808;28;20056;-88
2022/10/20 10:33:38;;;;;;;3.75;1.08;;;;;;;;;;5087307;28;20090;-88
2022/10/20 10:36:08;;;;;;;4.03;1.63;;;;;;;;;;5075731;28;20056;-87
2022/10/20 10:38:37;;;;;;;5.70;2.05;;;;;;;;;;5076083;28;20098;-88
2022/10/20 10:41:14;;;;;;;2.63;1.65;;;;;;;;;;5085448;28;20510;-88
2022/10/20 10:43:49;;;;;;;4.93;1.35;;;;;;;;;;5086220;28;20056;-88
2022/10/20 10:46:20;;;;;;;4.45;2.15;;;;;;;;;;5083534;28;20051;-88
2022/10/20 10:48:54;;;;;;;7.60;2.53;;;;;;;;;;5085441;28;20059;-87
2022/10/20 10:51:28;;;;;;;2.78;1.27;;;;;;;;;;5073070;28;20129;-88
2022/10/20 10:54:02;;;;;;;4.65;2.13;;;;;;;;;;5076900;28;20444;-88
2022/10/20 10:56:41;;;;;;;3.60;1.67;;;;;;;;;;5078997;28;20166;-88
2022/10/20 10:59:15;;;;;;;3.47;1.30;;;;;;;;;;5080129;28;20060;-87
2022/10/20 11:01:58;;;;;;;3.90;1.95;;;;;;;;;;5069343;28;20045;-87
2022/10/20 11:04:38;;;;;;;6.80;1.35;;;;;;;;;;5088566;28;20043;-88
2022/10/20 11:07:11;;;;;;;2.85;1.27;;;;;;;;;;5088742;28;20402;-88
2022/10/20 11:09:43;;;;;;;5.03;1.50;;;;;;;;;;5085051;28;20138;-87
2022/10/20 11:12:27;;;;;;;3.38;1.25;;;;;;;;;;5089054;28;20086;-88
2022/10/20 11:15:05;;;;;;;3.75;1.60;;;;;;;;;;5091894;28;20048;-88
2022/10/20 11:17:40;;;;;;;4.57;1.42;;;;;;;;;;5077396;28;20504;-88
2022/10/20 11:20:08;;;;;;;;;;;;;;;;;;5086919;28;20499;-88
2022/10/20 11:22:42;;;;;;;7.65;2.17;;;;;;;;;;5079018;28;19924;-87
2022/10/20 11:25:15;;;;;;;3.72;1.20;;;;;;;;;;5082792;28;20093;-88
2022/10/20 11:27:43;;;;;;;2.90;1.25;;;;;;;;;;5082732;28;20059;-88
2022/10/20 11:30:17;;;;;;;2.35;1.70;;;;;;;;;;5089879;28;20048;-87
2022/10/20 11:32:48;;;;;;;3.67;1.40;;;;;;;;;;5083140;28;20055;-87
2022/10/20 11:35:21;;;;;;;3.83;1.30;;;;;;;;;;5087829;28;20056;-87
2022/10/20 11:37:52;;;;;;;8.93;1.13;;;;;;;;;;5080276;28;20048;-88
2022/10/20 11:40:23;;;;;;;5.88;1.75;;;;;;;;;;5088787;28;20056;-87
2022/10/20 11:42:54;;;;;;;3.53;1.42;;;;;;;;;;5068990;28;20044;-87
2022/10/20 11:45:27;;;;;;;1.38;1.17;;;;;;;;;;5079044;28;20048;-89
2022/10/20 11:48:00;;;;;;;2.47;1.45;;;;;;;;;;5090019;28;20043;-89
2022/10/20 11:50:30;;;;;;;1.42;1.05;;;;;;;;;;5086871;28;20082;-88
2022/10/20 11:53:08;;;;;;;2.95;1.30;;;;;;;;;;5084595;28;20050;-88
2022/10/20 11:55:44;;;;;;;1.65;1.17;;;;;;;;;;5081152;28;20052;-88
2022/10/20 11:58:33;;;;;;;2.83;1.60;;;;;;;;;;5081160;28;20476;-88
2022/10/20 12:01:12;;;;;;;2.00;1.02;;;;;;;;;;5078181;28;20131;-88
2022/10/20 12:03:59;;;;;;;2.03;1.20;;;;;;;;;;5086063;28;20059;-88
2022/10/20 12:06:35;;;;;;;4.05;1.02;;;;;;;;;;5076070;28;20053;-87
2022/10/20 12:09:20;;;;;;;6.22;2.15;;;;;;;;;;5085915;28;21500;-88
2022/10/20 12:11:55;;;;;;;4.32;1.38;;;;;;;;;;5079296;28;20136;-88
2022/10/20 12:14:27;;;;;;;4.25;1.20;;;;;;;;;;5082639;28;20535;-87
2022/10/20 12:17:08;;;;;;;6.95;1.45;;;;;;;;;;5074546;28;20467;-88
2022/10/20 12:19:36;;;;;;;2.80;1.38;;;;;;;;;;5078196;28;20052;-90
2022/10/20 12:22:07;;;;;;;1.38;1.00;;;;;;;;;;5083167;28;20110;-89
2022/10/20 12:24:40;;;;;;;9.40;1.30;;;;;;;;;;5082629;28;20523;-88
2022/10/20 12:27:18;;;;;;;2.08;1.60;;;;;;;;;;5075740;28;20048;-90
2022/10/20 12:29:51;;;;;;;1.55;0.80;;;;;;;;;;5072772;28;20063;-89
2022/10/20 12:32:35;;;;;;;2.08;0.98;;;;;;;;;;5082049;28;20051;-90
2022/10/20 12:35:25;;;;;;;1.63;0.90;;;;;;;;;;5084980;28;20047;-89
2022/10/20 12:37:55;;;;;;;0.85;0.77;;;;;;;;;;5085917;28;20488;-90
2022/10/20 12:40:26;;;;;;;1.42;1.08;;;;;;;;;;5085019;28;20083;-88
2022/10/20 12:42:56;;;;;;;1.27;1.10;;;;;;;;;;5076845;28;20048;-89
2022/10/20 12:45:27;;;;;;;2.90;1.27;;;;;;;;;;5075540;28;20135;-89
2022/10/20 12:47:59;;;;;;;1.17;0.77;;;;;;;;;;5086649;28;20082;-87
2022/10/20 12:50:32;;;;;;;1.95;0.80;;;;;;;;;;5084392;28;20504;-89
2022/10/20 12:53:09;;;;;;;3.30;1.25;;;;;;;;;;5088217;28;20450;-89
2022/10/20 12:55:39;;;;;;;2.85;1.08;;;;;;;;;;5082104;28;20052;-88
2022/10/20 12:58:13;;;;;;;14.23;1.67;;;;;;;;;;5079416;28;20147;-89
2022/10/20 13:00:59;;;;;;;2.20;1.33;;;;;;;;;;5073458;28;20083;-88
2022/10/20 13:03:45;;;;;;;2.42;1.20;;;;;;;;;;5060606;28;20113;-89
2022/10/20 13:06:32;;;;;;;3.05;1.50;;;;;;;;;;5077445;28;20102;-88
2022/10/20 13:09:20;;;;;;;5.97;1.58;;;;;;;;;;5074190;28;20044;-88
2022/10/20 13:12:06;;;;;;;7.20;1.00;;;;;;;;;;5076367;28;20084;-89
2022/10/20 13:14:55;;;;;;;3.70;1.58;;;;;;;;;;5079198;28;20059;-88
2022/10/20 13:17:27;;;;;;;2.55;1.20;;;;;;;;;;5073274;28;20057;-89
2022/10/20 13:20:00;;;;;;;2.63;1.10;;;;;;;;;;5088464;28;20419;-89
2022/10/20 13:22:33;;;;;;;2.33;1.27;;;;;;;;;;5091411;28;20052;-89
2022/10/20 13:25:03;;;;;;;2.55;1.00;;;;;;;;;;5084556;28;20544;-89
2022/10/20 13:27:32;;;;;;;3.50;1.77;;;;;;;;;;5089834;28;20048;-89
2022/10/20 13:30:00;;;;;;;1.50;0.98;;;;;;;;;;5092090;28;20093;-89
2022/10/20 13:32:34;;;;;;;1.70;1.05;;;;;;;;;;5089107;28;20592;-88
2022/10/20 13:35:09;;;;;;;3.78;1.40;;;;;;;;;;5089691;28;20127;-88
2022/10/20 13:37:45;;;;;;;6.53;0.98;;;;;;;;;;5080391;28;20060;-88
2022/10/20 13:40:18;;;;;;;3.10;1.20;;;;;;;;;;5085807;28;20138;-89
2022/10/20 13:42:59;;;;;;;2.33;1.45;;;;;;;;;;5086827;28;20067;-89
2022/10/20 13:45:50;;;;;;;1.95;1.02;;;;;;;;;;5091287;28;20175;-87
2022/10/20 13:48:27;;;;;;;3.03;1.52;;;;;;;;;;5086844;28;20067;-89
2022/10/20 13:50:58;;;;;;;1.70;1.20;;;;;;;;;;5096692;28;20483;-89
2022/10/20 13:53:29;;;;;;;1.75;1.02;;;;;;;;;;5095604;28;20424;-89
2022/10/20 13:56:02;;;;;;;2.15;1.33;;;;;;;;;;5101261;28;20078;-89
2022/10/20 13:58:31;;;;;;;2.85;1.40;;;;;;;;;;5097050;28;20456;-88
2022/10/20 14:01:01;;;;;;;2.63;1.45;;;;;;;;;;5080208;28;20142;-88
2022/10/20 14:03:31;;;;;;;2.20;1.08;;;;;;;;;;5099099;28;20063;-90
2022/10/20 14:06:00;;;;;;;2.25;1.10;;;;;;;;;;5085381;28;20044;-89
2022/10/20 14:08:29;;;;;;;3.10;1.30;;;;;;;;;;5075776;28;20048;-89
2022/10/20 14:11:00;;;;;;;3.78;1.42;;;;;;;;;;5084630;28;20079;-89
2022/10/20 14:13:33;;;;;;;2.33;0.90;;;;;;;;;;5088827;28;20051;-89
2022/10/20 14:16:02;;;;;;;1.40;1.30;;;;;;;;;;5089149;28;20131;-89
2022/10/20 14:18:34;;;;;;;2.47;1.00;;;;;;;;;;5087286;28;20048;-89
2022/10/20 14:21:05;;;;;;;1.98;1.27;;;;;;;;;;5084464;28;20052;-89
2022/10/20 14:23:35;;;;;;;2.33;1.15;;;;;;;;;;5089135;28;20044;-89
2022/10/20 14:26:06;;;;;;;1.17;0.82;;;;;;;;;;5089671;28;20052;-87
2022/10/20 14:28:35;;;;;;;2.42;1.02;;;;;;;;;;5087161;28;20086;-89
2022/10/20 14:31:04;;;;;;;1.55;0.82;;;;;;;;;;5081117;28;20138;-89
2022/10/20 14:33:37;;;;;;;3.83;1.30;;;;;;;;;;5092649;28;20048;-90
2022/10/20 14:36:17;;;;;;;3.08;1.75;;;;;;;;;;5091401;28;20511;-89
2022/10/20 14:38:46;;;;;;;2.85;1.73;;;;;;;;;;5091428;28;20055;-88
2022/10/20 14:41:25;;;;;;;3.35;1.00;;;;;;;;;;5083538;28;20046;-89
2022/10/20 14:43:54;;;;;;;1.70;0.90;;;;;;;;;;5083080;28;20079;-88
2022/10/20 14:46:26;;;;;;;2.40;1.25;;;;;;;;;;5082750;28;20044;-89
2022/10/20 14:48:54;;;;;;;2.20;1.23;;;;;;;;;;5083533;28;20048;-90
2022/10/20 14:51:33;;;;;;;7.43;1.52;;;;;;;;;;5079018;28;20061;-89
2022/10/20 14:54:17;;;;;;;3.15;1.23;;;;;;;;;;5079011;28;20052;-89
2022/10/20 14:56:46;;;;;;;1.15;0.80;;;;;;;;;;5087106;28;20511;-88
2022/10/20 14:59:16;;;;;;;2.90;0.85;;;;;;;;;;5086861;28;20062;-90
2022/10/20 15:05:19;;;;;;;2.92;1.38;;;;;;;;;;5094304;28;20075;-90
2022/10/20 15:08:10;;;;;;;2.30;1.35;;;;;;;;;;5078969;28;20163;-91
2022/10/20 15:10:39;;;;;;;2.85;1.40;;;;;;;;;;5076113;28;20534;-85
2022/10/20 15:13:19;;;;;;;3.17;1.23;;;;;;;;;;5089602;28;20121;-86
2022/10/20 15:15:54;;;;;;;20.75;1.58;;;;;;;;;;5089429;28;20127;-84
2022/10/20 15:18:23;;;;;;;3.47;1.05;;;;;;;;;;5092440;28;20558;-83
2022/10/20 15:20:55;;;;;;;2.10;1.40;;;;;;;;;;5089444;28;20509;-87
2022/10/20 15:23:28;;;;;;;4.13;1.48;;;;;;;;;;5068534;28;20052;-86
2022/10/20 15:26:00;;;;;;;2.88;1.50;;;;;;;;;;5083282;28;20122;-87
2022/10/20 15:28:31;;;;;;;2.65;1.15;;;;;;;;;;5085998;28;20043;-86
2022/10/20 15:31:00;;;;;;;3.67;1.20;;;;;;;;;;5090556;28;20135;-86
2022/10/20 15:33:29;;;;;;;3.20;1.67;;;;;;;;;;5091265;28;20423;-86
2022/10/20 15:35:59;;;;;;;1.67;0.90;;;;;;;;;;5083726;28;20054;-87
2022/10/20 15:38:29;;;;;;;2.00;0.88;;;;;;;;;;5088054;28;20043;-86
2022/10/20 15:41:00;;;;;;;1.38;1.00;;;;;;;;;;5088529;28;20059;-85
2022/10/20 15:43:33;;;;;;;5.45;1.05;;;;;;;;;;5083200;28;20058;-86
2022/10/20 15:46:03;;;;;;;3.45;1.58;;;;;;;;;;5082668;28;20044;-86
2022/10/20 15:48:34;;;;;;;2.40;0.77;;;;;;;;;;5081603;28;20276;-88
2022/10/20 15:51:05;;;;;;;2.42;1.30;;;;;;;;;;5082051;28;20438;-91
2022/10/20 15:53:37;;;;;;;3.42;1.70;;;;;;;;;;5093166;28;20142;-90
2022/10/20 15:56:09;;;;;;;2.33;1.33;;;;;;;;;;5080314;28;20079;-89
2022/10/20 15:58:37;;;;;;;1.80;1.02;;;;;;;;;;5088654;28;20091;-89
2022/10/20 16:01:07;;;;;;;2.92;0.98;;;;;;;;;;5081542;28;20043;-89
2022/10/20 16:03:39;;;;;;;2.55;1.35;;;;;;;;;;5088463;28;20059;-89